sensor_id;sensor_type;location;lat;lon;timestamp;P1;durP1;ratioP1;P2;durP2;ratioP2
11004;SDS011;5555;59.622;16.556;2022-07-22T00:00:33;8.97;;;8.27;;
11004;SDS011;5555;59.622;16.556;2022-07-22T00:02:59;9.63;;;8.63;;
11004;SDS011;5555;59.622;16.556;2022-07-22T00:05:24;10.00;;;9.07;;
11004;SDS011;5555;59.622;16.556;2022-07-22T00:07:50;10.43;;;9.07;;
11004;SDS011;5555;59.622;16.556;2022-07-22T00:10:16;9.20;;;8.33;;
11004;SDS011;5555;59.622;16.556;2022-07-22T00:12:41;9.73;;;8.67;;
11004;SDS011;5555;59.622;16.556;2022-07-22T00:15:07;10.10;;;8.90;;
11004;SDS011;5555;59.622;16.556;2022-07-22T00:17:33;9.60;;;8.47;;
11004;SDS011;5555;59.622;16.556;2022-07-22T00:20:01;10.60;;;8.30;;
11004;SDS011;5555;59.622;16.556;2022-07-22T00:22:27;9.57;;;8.70;;
11004;SDS011;5555;59.622;16.556;2022-07-22T00:24:53;8.87;;;8.07;;
11004;SDS011;5555;59.622;16.556;2022-07-22T00:27:19;9.67;;;8.77;;
11004;SDS011;5555;59.622;16.556;2022-07-22T00:29:44;9.70;;;8.73;;
11004;SDS011;5555;59.622;16.556;2022-07-22T00:32:10;8.20;;;7.40;;
11004;SDS011;5555;59.622;16.556;2022-07-22T00:34:35;9.30;;;8.50;;
11004;SDS011;5555;59.622;16.556;2022-07-22T00:37:01;9.07;;;7.90;;
11004;SDS011;5555;59.622;16.556;2022-07-22T00:39:27;9.53;;;8.53;;
11004;SDS011;5555;59.622;16.556;2022-07-22T00:41:52;9.17;;;8.27;;
11004;SDS011;5555;59.622;16.556;2022-07-22T00:44:18;9.00;;;8.20;;
11004;SDS011;5555;59.622;16.556;2022-07-22T00:46:44;8.87;;;8.07;;
11004;SDS011;5555;59.622;16.556;2022-07-22T00:49:09;9.47;;;8.37;;
11004;SDS011;5555;59.622;16.556;2022-07-22T00:51:35;8.87;;;8.07;;
11004;SDS011;5555;59.622;16.556;2022-07-22T00:54:04;9.00;;;8.13;;
11004;SDS011;5555;59.622;16.556;2022-07-22T00:56:30;9.07;;;8.27;;
11004;SDS011;5555;59.622;16.556;2022-07-22T00:58:57;11.40;;;8.27;;
11004;SDS011;5555;59.622;16.556;2022-07-22T01:01:25;9.40;;;8.33;;
11004;SDS011;5555;59.622;16.556;2022-07-22T01:03:51;8.70;;;7.90;;
11004;SDS011;5555;59.622;16.556;2022-07-22T01:06:17;8.23;;;7.50;;
11004;SDS011;5555;59.622;16.556;2022-07-22T01:08:43;7.90;;;7.17;;
11004;SDS011;5555;59.622;16.556;2022-07-22T01:11:10;7.73;;;7.03;;
11004;SDS011;5555;59.622;16.556;2022-07-22T01:13:38;10.13;;;7.17;;
11004;SDS011;5555;59.622;16.556;2022-07-22T01:16:05;9.60;;;7.80;;
11004;SDS011;5555;59.622;16.556;2022-07-22T01:18:31;8.30;;;7.50;;
11004;SDS011;5555;59.622;16.556;2022-07-22T01:20:57;8.97;;;8.17;;
11004;SDS011;5555;59.622;16.556;2022-07-22T01:23:23;8.43;;;7.67;;
11004;SDS011;5555;59.622;16.556;2022-07-22T01:25:50;9.63;;;7.53;;
11004;SDS011;5555;59.622;16.556;2022-07-22T01:28:15;7.80;;;7.10;;
11004;SDS011;5555;59.622;16.556;2022-07-22T01:30:41;8.33;;;7.63;;
11004;SDS011;5555;59.622;16.556;2022-07-22T01:33:07;8.43;;;7.53;;
11004;SDS011;5555;59.622;16.556;2022-07-22T01:35:33;9.20;;;7.70;;
11004;SDS011;5555;59.622;16.556;2022-07-22T01:37:58;7.90;;;7.10;;
11004;SDS011;5555;59.622;16.556;2022-07-22T01:40:24;9.73;;;7.80;;
11004;SDS011;5555;59.622;16.556;2022-07-22T01:42:50;9.17;;;8.27;;
11004;SDS011;5555;59.622;16.556;2022-07-22T01:45:16;9.80;;;7.53;;
11004;SDS011;5555;59.622;16.556;2022-07-22T01:47:41;8.27;;;7.43;;
11004;SDS011;5555;59.622;16.556;2022-07-22T01:50:08;8.57;;;7.73;;
11004;SDS011;5555;59.622;16.556;2022-07-22T01:52:35;8.47;;;7.67;;
11004;SDS011;5555;59.622;16.556;2022-07-22T01:55:01;8.40;;;7.53;;
11004;SDS011;5555;59.622;16.556;2022-07-22T01:57:27;7.93;;;7.10;;
11004;SDS011;5555;59.622;16.556;2022-07-22T01:59:52;8.13;;;7.33;;
11004;SDS011;5555;59.622;16.556;2022-07-22T02:02:18;8.90;;;7.07;;
11004;SDS011;5555;59.622;16.556;2022-07-22T02:04:43;7.77;;;6.97;;
11004;SDS011;5555;59.622;16.556;2022-07-22T02:07:09;7.90;;;7.20;;
11004;SDS011;5555;59.622;16.556;2022-07-22T02:09:35;8.03;;;7.03;;
11004;SDS011;5555;59.622;16.556;2022-07-22T02:12:00;8.10;;;7.40;;
11004;SDS011;5555;59.622;16.556;2022-07-22T02:14:26;8.77;;;7.40;;
11004;SDS011;5555;59.622;16.556;2022-07-22T02:16:52;7.93;;;7.23;;
11004;SDS011;5555;59.622;16.556;2022-07-22T02:19:17;8.57;;;7.70;;
11004;SDS011;5555;59.622;16.556;2022-07-22T02:21:43;8.00;;;7.20;;
11004;SDS011;5555;59.622;16.556;2022-07-22T02:24:08;7.47;;;6.87;;
11004;SDS011;5555;59.622;16.556;2022-07-22T02:26:34;8.47;;;7.10;;
11004;SDS011;5555;59.622;16.556;2022-07-22T02:29:00;7.80;;;7.03;;
11004;SDS011;5555;59.622;16.556;2022-07-22T02:31:26;8.27;;;7.40;;
11004;SDS011;5555;59.622;16.556;2022-07-22T02:33:51;7.97;;;7.17;;
11004;SDS011;5555;59.622;16.556;2022-07-22T02:36:17;8.23;;;6.87;;
11004;SDS011;5555;59.622;16.556;2022-07-22T02:38:43;8.57;;;7.77;;
11004;SDS011;5555;59.622;16.556;2022-07-22T02:41:08;8.23;;;7.27;;
11004;SDS011;5555;59.622;16.556;2022-07-22T02:43:34;8.20;;;7.10;;
11004;SDS011;5555;59.622;16.556;2022-07-22T02:46:00;8.53;;;6.97;;
11004;SDS011;5555;59.622;16.556;2022-07-22T02:48:25;8.37;;;7.57;;
11004;SDS011;5555;59.622;16.556;2022-07-22T02:50:51;8.80;;;7.70;;
11004;SDS011;5555;59.622;16.556;2022-07-22T02:53:17;7.77;;;7.07;;
11004;SDS011;5555;59.622;16.556;2022-07-22T02:55:42;8.50;;;7.33;;
11004;SDS011;5555;59.622;16.556;2022-07-22T02:58:08;7.67;;;6.97;;
11004;SDS011;5555;59.622;16.556;2022-07-22T03:00:35;9.87;;;8.03;;
11004;SDS011;5555;59.622;16.556;2022-07-22T03:03:02;9.47;;;7.60;;
11004;SDS011;5555;59.622;16.556;2022-07-22T03:05:36;8.13;;;6.97;;
11004;SDS011;5555;59.622;16.556;2022-07-22T03:08:02;7.80;;;7.10;;
11004;SDS011;5555;59.622;16.556;2022-07-22T03:10:27;8.30;;;7.43;;
11004;SDS011;5555;59.622;16.556;2022-07-22T03:12:53;9.37;;;7.57;;
11004;SDS011;5555;59.622;16.556;2022-07-22T03:15:19;7.93;;;7.23;;
11004;SDS011;5555;59.622;16.556;2022-07-22T03:17:44;8.43;;;7.20;;
11004;SDS011;5555;59.622;16.556;2022-07-22T03:20:10;8.30;;;7.23;;
11004;SDS011;5555;59.622;16.556;2022-07-22T03:22:36;11.13;;;8.40;;
11004;SDS011;5555;59.622;16.556;2022-07-22T03:25:02;7.50;;;6.80;;
11004;SDS011;5555;59.622;16.556;2022-07-22T03:27:28;8.27;;;7.33;;
11004;SDS011;5555;59.622;16.556;2022-07-22T03:29:54;8.40;;;7.50;;
11004;SDS011;5555;59.622;16.556;2022-07-22T03:32:19;9.03;;;7.33;;
11004;SDS011;5555;59.622;16.556;2022-07-22T03:34:45;9.07;;;7.63;;
11004;SDS011;5555;59.622;16.556;2022-07-22T03:37:11;9.30;;;7.57;;
11004;SDS011;5555;59.622;16.556;2022-07-22T03:39:37;7.50;;;6.80;;
11004;SDS011;5555;59.622;16.556;2022-07-22T03:42:03;10.10;;;7.70;;
11004;SDS011;5555;59.622;16.556;2022-07-22T03:44:29;8.13;;;7.30;;
11004;SDS011;5555;59.622;16.556;2022-07-22T03:46:54;7.83;;;6.87;;
11004;SDS011;5555;59.622;16.556;2022-07-22T03:49:20;8.00;;;7.30;;
11004;SDS011;5555;59.622;16.556;2022-07-22T03:51:46;8.27;;;7.37;;
11004;SDS011;5555;59.622;16.556;2022-07-22T03:54:11;9.13;;;7.70;;
11004;SDS011;5555;59.622;16.556;2022-07-22T03:56:37;8.20;;;7.03;;
11004;SDS011;5555;59.622;16.556;2022-07-22T03:59:03;10.47;;;7.10;;
11004;SDS011;5555;59.622;16.556;2022-07-22T04:01:28;9.00;;;6.73;;
11004;SDS011;5555;59.622;16.556;2022-07-22T04:03:54;10.83;;;7.93;;
11004;SDS011;5555;59.622;16.556;2022-07-22T04:06:20;7.37;;;6.67;;
11004;SDS011;5555;59.622;16.556;2022-07-22T04:08:45;8.47;;;6.97;;
11004;SDS011;5555;59.622;16.556;2022-07-22T04:11:11;8.13;;;6.57;;
11004;SDS011;5555;59.622;16.556;2022-07-22T04:13:37;9.63;;;7.37;;
11004;SDS011;5555;59.622;16.556;2022-07-22T04:16:02;7.03;;;6.33;;
11004;SDS011;5555;59.622;16.556;2022-07-22T04:18:31;8.13;;;6.63;;
11004;SDS011;5555;59.622;16.556;2022-07-22T04:20:58;7.50;;;6.70;;
11004;SDS011;5555;59.622;16.556;2022-07-22T04:23:24;7.47;;;6.37;;
11004;SDS011;5555;59.622;16.556;2022-07-22T04:25:50;6.80;;;6.20;;
11004;SDS011;5555;59.622;16.556;2022-07-22T04:28:16;8.17;;;6.03;;
11004;SDS011;5555;59.622;16.556;2022-07-22T04:30:41;6.50;;;5.90;;
11004;SDS011;5555;59.622;16.556;2022-07-22T04:33:07;9.43;;;6.10;;
11004;SDS011;5555;59.622;16.556;2022-07-22T04:35:33;7.40;;;5.90;;
11004;SDS011;5555;59.622;16.556;2022-07-22T04:37:58;9.40;;;6.90;;
11004;SDS011;5555;59.622;16.556;2022-07-22T04:40:24;6.70;;;6.07;;
11004;SDS011;5555;59.622;16.556;2022-07-22T04:42:50;8.07;;;5.43;;
11004;SDS011;5555;59.622;16.556;2022-07-22T04:45:15;9.23;;;6.40;;
11004;SDS011;5555;59.622;16.556;2022-07-22T04:47:41;6.10;;;5.50;;
11004;SDS011;5555;59.622;16.556;2022-07-22T04:50:07;6.83;;;5.20;;
11004;SDS011;5555;59.622;16.556;2022-07-22T04:52:33;7.53;;;5.67;;
11004;SDS011;5555;59.622;16.556;2022-07-22T04:54:59;5.73;;;5.10;;
11004;SDS011;5555;59.622;16.556;2022-07-22T04:57:25;7.43;;;5.80;;
11004;SDS011;5555;59.622;16.556;2022-07-22T04:59:52;6.27;;;5.53;;
11004;SDS011;5555;59.622;16.556;2022-07-22T05:02:18;6.73;;;5.50;;
11004;SDS011;5555;59.622;16.556;2022-07-22T05:04:44;7.90;;;5.20;;
11004;SDS011;5555;59.622;16.556;2022-07-22T05:07:09;5.77;;;5.07;;
11004;SDS011;5555;59.622;16.556;2022-07-22T05:09:35;8.90;;;5.37;;
11004;SDS011;5555;59.622;16.556;2022-07-22T05:12:01;8.67;;;5.50;;
11004;SDS011;5555;59.622;16.556;2022-07-22T05:14:27;5.20;;;4.70;;
11004;SDS011;5555;59.622;16.556;2022-07-22T05:16:53;6.57;;;4.93;;
11004;SDS011;5555;59.622;16.556;2022-07-22T05:19:19;6.90;;;4.93;;
11004;SDS011;5555;59.622;16.556;2022-07-22T05:21:44;5.20;;;4.70;;
11004;SDS011;5555;59.622;16.556;2022-07-22T05:24:10;5.77;;;5.03;;
11004;SDS011;5555;59.622;16.556;2022-07-22T05:26:36;6.67;;;4.60;;
11004;SDS011;5555;59.622;16.556;2022-07-22T05:29:01;5.97;;;4.40;;
11004;SDS011;5555;59.622;16.556;2022-07-22T05:31:27;7.30;;;5.20;;
11004;SDS011;5555;59.622;16.556;2022-07-22T05:33:53;8.30;;;5.07;;
11004;SDS011;5555;59.622;16.556;2022-07-22T05:36:18;6.80;;;4.63;;
11004;SDS011;5555;59.622;16.556;2022-07-22T05:38:44;7.20;;;5.03;;
11004;SDS011;5555;59.622;16.556;2022-07-22T05:41:10;6.23;;;4.33;;
11004;SDS011;5555;59.622;16.556;2022-07-22T05:43:35;6.17;;;4.73;;
11004;SDS011;5555;59.622;16.556;2022-07-22T05:46:01;7.73;;;5.07;;
11004;SDS011;5555;59.622;16.556;2022-07-22T05:48:27;8.87;;;4.93;;
11004;SDS011;5555;59.622;16.556;2022-07-22T05:50:52;6.77;;;5.30;;
11004;SDS011;5555;59.622;16.556;2022-07-22T05:53:18;7.50;;;4.50;;
11004;SDS011;5555;59.622;16.556;2022-07-22T05:55:44;6.50;;;4.70;;
11004;SDS011;5555;59.622;16.556;2022-07-22T05:58:10;8.23;;;5.47;;
11004;SDS011;5555;59.622;16.556;2022-07-22T06:00:35;7.13;;;5.10;;
11004;SDS011;5555;59.622;16.556;2022-07-22T06:03:01;6.17;;;4.27;;
11004;SDS011;5555;59.622;16.556;2022-07-22T06:05:26;6.53;;;4.50;;
11004;SDS011;5555;59.622;16.556;2022-07-22T06:07:52;6.47;;;4.63;;
11004;SDS011;5555;59.622;16.556;2022-07-22T06:10:18;5.53;;;4.13;;
11004;SDS011;5555;59.622;16.556;2022-07-22T06:12:43;5.67;;;4.30;;
11004;SDS011;5555;59.622;16.556;2022-07-22T06:15:09;5.80;;;4.43;;
11004;SDS011;5555;59.622;16.556;2022-07-22T06:17:35;4.90;;;3.50;;
11004;SDS011;5555;59.622;16.556;2022-07-22T06:20:01;5.57;;;3.80;;
11004;SDS011;5555;59.622;16.556;2022-07-22T06:22:27;5.40;;;4.30;;
11004;SDS011;5555;59.622;16.556;2022-07-22T06:24:52;6.03;;;3.80;;
11004;SDS011;5555;59.622;16.556;2022-07-22T06:27:18;5.73;;;3.90;;
11004;SDS011;5555;59.622;16.556;2022-07-22T06:29:44;4.83;;;3.47;;
11004;SDS011;5555;59.622;16.556;2022-07-22T06:32:10;6.45;;;4.05;;
11004;SDS011;5555;59.622;16.556;2022-07-22T06:34:35;5.30;;;3.40;;
11004;SDS011;5555;59.622;16.556;2022-07-22T06:37:01;6.20;;;3.53;;
11004;SDS011;5555;59.622;16.556;2022-07-22T06:39:27;5.00;;;3.80;;
11004;SDS011;5555;59.622;16.556;2022-07-22T06:41:53;6.23;;;3.60;;
11004;SDS011;5555;59.622;16.556;2022-07-22T06:44:18;5.23;;;3.60;;
11004;SDS011;5555;59.622;16.556;2022-07-22T06:46:44;4.50;;;3.60;;
11004;SDS011;5555;59.622;16.556;2022-07-22T06:49:09;4.30;;;3.20;;
11004;SDS011;5555;59.622;16.556;2022-07-22T06:51:35;5.17;;;3.73;;
11004;SDS011;5555;59.622;16.556;2022-07-22T06:54:01;5.63;;;3.10;;
11004;SDS011;5555;59.622;16.556;2022-07-22T06:56:26;3.80;;;3.10;;
11004;SDS011;5555;59.622;16.556;2022-07-22T06:58:52;3.30;;;2.83;;
11004;SDS011;5555;59.622;16.556;2022-07-22T07:01:18;3.40;;;3.07;;
11004;SDS011;5555;59.622;16.556;2022-07-22T07:03:43;4.27;;;2.70;;
11004;SDS011;5555;59.622;16.556;2022-07-22T07:06:10;6.97;;;2.87;;
11004;SDS011;5555;59.622;16.556;2022-07-22T07:08:39;4.40;;;3.37;;
11004;SDS011;5555;59.622;16.556;2022-07-22T07:11:05;7.37;;;3.43;;
11004;SDS011;5555;59.622;16.556;2022-07-22T07:13:32;4.97;;;3.23;;
11004;SDS011;5555;59.622;16.556;2022-07-22T07:15:58;7.90;;;3.47;;
11004;SDS011;5555;59.622;16.556;2022-07-22T07:18:23;8.23;;;3.23;;
11004;SDS011;5555;59.622;16.556;2022-07-22T07:20:49;4.87;;;3.60;;
11004;SDS011;5555;59.622;16.556;2022-07-22T07:23:15;5.23;;;3.07;;
11004;SDS011;5555;59.622;16.556;2022-07-22T07:25:41;5.77;;;3.03;;
11004;SDS011;5555;59.622;16.556;2022-07-22T07:28:07;3.33;;;2.90;;
11004;SDS011;5555;59.622;16.556;2022-07-22T07:30:33;4.77;;;3.20;;
11004;SDS011;5555;59.622;16.556;2022-07-22T07:32:58;6.60;;;3.37;;
11004;SDS011;5555;59.622;16.556;2022-07-22T07:35:25;3.47;;;3.07;;
11004;SDS011;5555;59.622;16.556;2022-07-22T07:37:51;7.00;;;3.00;;
11004;SDS011;5555;59.622;16.556;2022-07-22T07:40:17;7.60;;;3.17;;
11004;SDS011;5555;59.622;16.556;2022-07-22T07:42:43;4.97;;;3.33;;
11004;SDS011;5555;59.622;16.556;2022-07-22T07:45:09;5.07;;;3.17;;
11004;SDS011;5555;59.622;16.556;2022-07-22T07:47:35;4.40;;;2.90;;
11004;SDS011;5555;59.622;16.556;2022-07-22T07:50:01;3.57;;;2.90;;
11004;SDS011;5555;59.622;16.556;2022-07-22T07:52:28;3.40;;;3.10;;
11004;SDS011;5555;59.622;16.556;2022-07-22T07:54:54;4.83;;;2.90;;
11004;SDS011;5555;59.622;16.556;2022-07-22T07:57:21;3.27;;;2.70;;
11004;SDS011;5555;59.622;16.556;2022-07-22T07:59:47;4.13;;;2.93;;
11004;SDS011;5555;59.622;16.556;2022-07-22T08:02:13;5.17;;;2.87;;
11004;SDS011;5555;59.622;16.556;2022-07-22T08:04:38;4.43;;;2.57;;
11004;SDS011;5555;59.622;16.556;2022-07-22T08:07:05;5.97;;;2.60;;
11004;SDS011;5555;59.622;16.556;2022-07-22T08:09:31;5.80;;;2.60;;
11004;SDS011;5555;59.622;16.556;2022-07-22T08:11:58;4.47;;;2.60;;
11004;SDS011;5555;59.622;16.556;2022-07-22T08:14:24;4.83;;;2.80;;
11004;SDS011;5555;59.622;16.556;2022-07-22T08:16:50;4.47;;;2.73;;
11004;SDS011;5555;59.622;16.556;2022-07-22T08:19:16;5.97;;;2.70;;
11004;SDS011;5555;59.622;16.556;2022-07-22T08:21:41;3.63;;;2.60;;
11004;SDS011;5555;59.622;16.556;2022-07-22T08:24:10;3.87;;;2.27;;
11004;SDS011;5555;59.622;16.556;2022-07-22T08:26:36;6.43;;;2.67;;
11004;SDS011;5555;59.622;16.556;2022-07-22T08:29:03;3.20;;;2.70;;
11004;SDS011;5555;59.622;16.556;2022-07-22T08:31:30;3.17;;;2.50;;
11004;SDS011;5555;59.622;16.556;2022-07-22T08:33:59;4.20;;;2.63;;
11004;SDS011;5555;59.622;16.556;2022-07-22T08:36:29;4.03;;;2.63;;
11004;SDS011;5555;59.622;16.556;2022-07-22T08:38:55;4.63;;;2.67;;
11004;SDS011;5555;59.622;16.556;2022-07-22T08:41:22;5.63;;;3.10;;
11004;SDS011;5555;59.622;16.556;2022-07-22T08:43:49;2.77;;;2.33;;
11004;SDS011;5555;59.622;16.556;2022-07-22T08:46:16;3.97;;;2.40;;
11004;SDS011;5555;59.622;16.556;2022-07-22T08:48:41;3.27;;;2.33;;
11004;SDS011;5555;59.622;16.556;2022-07-22T08:51:07;4.57;;;2.77;;
11004;SDS011;5555;59.622;16.556;2022-07-22T08:53:33;4.63;;;2.30;;
11004;SDS011;5555;59.622;16.556;2022-07-22T08:55:59;3.10;;;2.43;;
11004;SDS011;5555;59.622;16.556;2022-07-22T08:58:25;4.57;;;2.27;;
11004;SDS011;5555;59.622;16.556;2022-07-22T09:01:11;6.77;;;2.37;;
11004;SDS011;5555;59.622;16.556;2022-07-22T09:03:48;2.50;;;2.30;;
11004;SDS011;5555;59.622;16.556;2022-07-22T09:06:17;3.73;;;2.10;;
11004;SDS011;5555;59.622;16.556;2022-07-22T09:08:50;2.67;;;2.47;;
11004;SDS011;5555;59.622;16.556;2022-07-22T09:11:23;6.50;;;2.50;;
11004;SDS011;5555;59.622;16.556;2022-07-22T09:13:51;3.03;;;2.40;;
11004;SDS011;5555;59.622;16.556;2022-07-22T09:16:37;3.00;;;2.40;;
11004;SDS011;5555;59.622;16.556;2022-07-22T09:19:04;3.67;;;2.37;;
11004;SDS011;5555;59.622;16.556;2022-07-22T09:21:30;3.00;;;2.17;;
11004;SDS011;5555;59.622;16.556;2022-07-22T09:23:56;6.00;;;2.70;;
11004;SDS011;5555;59.622;16.556;2022-07-22T09:26:31;5.37;;;2.60;;
11004;SDS011;5555;59.622;16.556;2022-07-22T09:28:59;4.70;;;2.70;;
11004;SDS011;5555;59.622;16.556;2022-07-22T09:31:26;3.47;;;2.67;;
11004;SDS011;5555;59.622;16.556;2022-07-22T09:33:55;4.07;;;2.70;;
11004;SDS011;5555;59.622;16.556;2022-07-22T09:36:21;6.37;;;3.23;;
11004;SDS011;5555;59.622;16.556;2022-07-22T09:38:47;3.47;;;2.80;;
11004;SDS011;5555;59.622;16.556;2022-07-22T09:41:13;2.60;;;2.40;;
11004;SDS011;5555;59.622;16.556;2022-07-22T09:43:39;3.83;;;2.67;;
11004;SDS011;5555;59.622;16.556;2022-07-22T09:46:05;3.70;;;2.70;;
11004;SDS011;5555;59.622;16.556;2022-07-22T09:48:31;6.27;;;2.93;;
11004;SDS011;5555;59.622;16.556;2022-07-22T09:50:57;3.87;;;2.60;;
11004;SDS011;5555;59.622;16.556;2022-07-22T09:53:24;2.87;;;2.40;;
11004;SDS011;5555;59.622;16.556;2022-07-22T09:55:52;5.23;;;2.67;;
11004;SDS011;5555;59.622;16.556;2022-07-22T09:58:18;3.53;;;2.80;;
11004;SDS011;5555;59.622;16.556;2022-07-22T10:00:44;2.53;;;2.10;;
11004;SDS011;5555;59.622;16.556;2022-07-22T10:03:11;4.17;;;2.80;;
11004;SDS011;5555;59.622;16.556;2022-07-22T10:05:50;4.37;;;2.83;;
11004;SDS011;5555;59.622;16.556;2022-07-22T10:08:16;6.30;;;3.90;;
11004;SDS011;5555;59.622;16.556;2022-07-22T10:10:42;5.17;;;2.43;;
11004;SDS011;5555;59.622;16.556;2022-07-22T10:13:08;4.10;;;3.00;;
11004;SDS011;5555;59.622;16.556;2022-07-22T10:15:35;3.80;;;2.40;;
11004;SDS011;5555;59.622;16.556;2022-07-22T10:18:03;3.00;;;2.43;;
11004;SDS011;5555;59.622;16.556;2022-07-22T10:20:32;3.20;;;2.63;;
11004;SDS011;5555;59.622;16.556;2022-07-22T10:22:59;3.57;;;2.33;;
11004;SDS011;5555;59.622;16.556;2022-07-22T10:25:27;3.23;;;2.73;;
11004;SDS011;5555;59.622;16.556;2022-07-22T10:28:02;4.23;;;2.70;;
11004;SDS011;5555;59.622;16.556;2022-07-22T10:30:31;3.70;;;2.20;;
11004;SDS011;5555;59.622;16.556;2022-07-22T10:33:04;3.93;;;2.17;;
11004;SDS011;5555;59.622;16.556;2022-07-22T10:35:32;3.50;;;2.40;;
11004;SDS011;5555;59.622;16.556;2022-07-22T10:38:03;3.03;;;2.00;;
11004;SDS011;5555;59.622;16.556;2022-07-22T10:40:32;2.70;;;1.97;;
11004;SDS011;5555;59.622;16.556;2022-07-22T10:43:11;2.87;;;1.70;;
11004;SDS011;5555;59.622;16.556;2022-07-22T10:48:05;3.30;;;1.93;;
11004;SDS011;5555;59.622;16.556;2022-07-22T10:53:05;4.00;;;1.93;;
11004;SDS011;5555;59.622;16.556;2022-07-22T10:55:36;3.37;;;2.00;;
11004;SDS011;5555;59.622;16.556;2022-07-22T11:01:00;4.00;;;2.10;;
11004;SDS011;5555;59.622;16.556;2022-07-22T11:03:31;4.60;;;2.23;;
11004;SDS011;5555;59.622;16.556;2022-07-22T11:09:00;5.90;;;2.37;;
11004;SDS011;5555;59.622;16.556;2022-07-22T11:11:50;4.90;;;2.27;;
11004;SDS011;5555;59.622;16.556;2022-07-22T11:14:28;4.90;;;2.23;;
11004;SDS011;5555;59.622;16.556;2022-07-22T11:16:58;3.40;;;2.03;;
11004;SDS011;5555;59.622;16.556;2022-07-22T11:19:29;3.20;;;1.93;;
11004;SDS011;5555;59.622;16.556;2022-07-22T11:21:58;4.50;;;2.00;;
11004;SDS011;5555;59.622;16.556;2022-07-22T11:24:27;6.87;;;2.07;;
11004;SDS011;5555;59.622;16.556;2022-07-22T11:26:54;3.83;;;1.73;;
11004;SDS011;5555;59.622;16.556;2022-07-22T11:29:25;4.10;;;1.87;;
11004;SDS011;5555;59.622;16.556;2022-07-22T11:31:56;1.93;;;1.60;;
11004;SDS011;5555;59.622;16.556;2022-07-22T11:34:23;3.57;;;1.70;;
11004;SDS011;5555;59.622;16.556;2022-07-22T11:36:50;4.37;;;1.63;;
11004;SDS011;5555;59.622;16.556;2022-07-22T11:39:19;2.57;;;1.87;;
11004;SDS011;5555;59.622;16.556;2022-07-22T11:41:47;2.47;;;1.60;;
11004;SDS011;5555;59.622;16.556;2022-07-22T11:44:16;3.27;;;1.60;;
11004;SDS011;5555;59.622;16.556;2022-07-22T11:46:47;3.60;;;1.70;;
11004;SDS011;5555;59.622;16.556;2022-07-22T11:49:17;4.07;;;1.90;;
11004;SDS011;5555;59.622;16.556;2022-07-22T11:51:45;4.23;;;2.13;;
11004;SDS011;5555;59.622;16.556;2022-07-22T11:54:11;2.63;;;1.77;;
11004;SDS011;5555;59.622;16.556;2022-07-22T11:56:37;2.50;;;1.70;;
11004;SDS011;5555;59.622;16.556;2022-07-22T11:59:04;4.47;;;1.77;;
11004;SDS011;5555;59.622;16.556;2022-07-22T12:01:32;2.23;;;1.67;;
11004;SDS011;5555;59.622;16.556;2022-07-22T12:04:06;4.77;;;1.80;;
11004;SDS011;5555;59.622;16.556;2022-07-22T12:06:37;4.00;;;2.27;;
11004;SDS011;5555;59.622;16.556;2022-07-22T12:09:09;2.43;;;1.87;;
11004;SDS011;5555;59.622;16.556;2022-07-22T12:11:36;4.03;;;1.90;;
11004;SDS011;5555;59.622;16.556;2022-07-22T12:14:08;3.43;;;2.00;;
11004;SDS011;5555;59.622;16.556;2022-07-22T12:16:35;3.50;;;2.27;;
11004;SDS011;5555;59.622;16.556;2022-07-22T12:19:03;4.30;;;2.50;;
11004;SDS011;5555;59.622;16.556;2022-07-22T12:21:34;3.87;;;2.10;;
11004;SDS011;5555;59.622;16.556;2022-07-22T12:24:03;3.70;;;2.23;;
11004;SDS011;5555;59.622;16.556;2022-07-22T12:26:38;3.93;;;2.13;;
11004;SDS011;5555;59.622;16.556;2022-07-22T12:29:21;3.40;;;2.60;;
11004;SDS011;5555;59.622;16.556;2022-07-22T12:32:03;3.87;;;2.30;;
11004;SDS011;5555;59.622;16.556;2022-07-22T12:34:39;4.13;;;2.70;;
11004;SDS011;5555;59.622;16.556;2022-07-22T12:37:16;3.20;;;2.43;;
11004;SDS011;5555;59.622;16.556;2022-07-22T12:42:21;4.03;;;2.60;;
11004;SDS011;5555;59.622;16.556;2022-07-22T12:44:52;3.30;;;2.53;;
11004;SDS011;5555;59.622;16.556;2022-07-22T12:50:26;2.83;;;2.50;;
11004;SDS011;5555;59.622;16.556;2022-07-22T12:52:57;3.90;;;2.63;;
11004;SDS011;5555;59.622;16.556;2022-07-22T12:55:35;3.30;;;2.40;;
11004;SDS011;5555;59.622;16.556;2022-07-22T12:58:03;3.03;;;2.37;;
11004;SDS011;5555;59.622;16.556;2022-07-22T13:00:34;3.20;;;2.33;;
11004;SDS011;5555;59.622;16.556;2022-07-22T13:03:02;4.03;;;2.37;;
11004;SDS011;5555;59.622;16.556;2022-07-22T13:05:28;3.57;;;2.47;;
11004;SDS011;5555;59.622;16.556;2022-07-22T13:07:54;3.53;;;2.47;;
11004;SDS011;5555;59.622;16.556;2022-07-22T13:10:21;4.03;;;2.63;;
11004;SDS011;5555;59.622;16.556;2022-07-22T13:12:48;3.40;;;2.27;;
11004;SDS011;5555;59.622;16.556;2022-07-22T13:15:14;6.43;;;2.30;;
11004;SDS011;5555;59.622;16.556;2022-07-22T13:17:40;4.87;;;2.67;;
11004;SDS011;5555;59.622;16.556;2022-07-22T13:20:07;6.00;;;2.50;;
11004;SDS011;5555;59.622;16.556;2022-07-22T13:22:33;4.20;;;2.50;;
11004;SDS011;5555;59.622;16.556;2022-07-22T13:24:59;3.40;;;2.50;;
11004;SDS011;5555;59.622;16.556;2022-07-22T13:27:25;5.93;;;2.90;;
11004;SDS011;5555;59.622;16.556;2022-07-22T13:29:51;4.57;;;2.37;;
11004;SDS011;5555;59.622;16.556;2022-07-22T13:32:16;2.73;;;2.50;;
11004;SDS011;5555;59.622;16.556;2022-07-22T13:34:42;4.67;;;2.60;;
11004;SDS011;5555;59.622;16.556;2022-07-22T13:37:08;2.93;;;2.40;;
11004;SDS011;5555;59.622;16.556;2022-07-22T13:39:34;5.73;;;2.57;;
11004;SDS011;5555;59.622;16.556;2022-07-22T13:42:00;4.17;;;2.50;;
11004;SDS011;5555;59.622;16.556;2022-07-22T13:44:25;5.33;;;2.27;;
11004;SDS011;5555;59.622;16.556;2022-07-22T13:46:51;4.73;;;2.03;;
11004;SDS011;5555;59.622;16.556;2022-07-22T13:49:17;3.03;;;2.30;;
11004;SDS011;5555;59.622;16.556;2022-07-22T13:51:43;3.97;;;2.37;;
11004;SDS011;5555;59.622;16.556;2022-07-22T13:54:08;4.37;;;2.40;;
11004;SDS011;5555;59.622;16.556;2022-07-22T13:56:34;3.70;;;2.20;;
11004;SDS011;5555;59.622;16.556;2022-07-22T13:59:00;4.07;;;2.40;;
11004;SDS011;5555;59.622;16.556;2022-07-22T14:01:27;3.73;;;2.50;;
11004;SDS011;5555;59.622;16.556;2022-07-22T14:03:53;3.63;;;2.10;;
11004;SDS011;5555;59.622;16.556;2022-07-22T14:06:19;4.20;;;2.13;;
11004;SDS011;5555;59.622;16.556;2022-07-22T14:08:45;4.97;;;2.20;;
11004;SDS011;5555;59.622;16.556;2022-07-22T14:11:10;4.03;;;1.90;;
11004;SDS011;5555;59.622;16.556;2022-07-22T14:13:36;3.47;;;2.20;;
11004;SDS011;5555;59.622;16.556;2022-07-22T14:16:02;3.93;;;2.10;;
11004;SDS011;5555;59.622;16.556;2022-07-22T14:18:46;2.83;;;1.83;;
11004;SDS011;5555;59.622;16.556;2022-07-22T14:21:11;3.87;;;2.20;;
11004;SDS011;5555;59.622;16.556;2022-07-22T14:23:37;4.23;;;2.63;;
11004;SDS011;5555;59.622;16.556;2022-07-22T14:26:02;3.30;;;2.00;;
11004;SDS011;5555;59.622;16.556;2022-07-22T14:28:28;3.20;;;2.20;;
11004;SDS011;5555;59.622;16.556;2022-07-22T14:30:54;3.10;;;2.33;;
11004;SDS011;5555;59.622;16.556;2022-07-22T14:33:21;4.13;;;2.53;;
11004;SDS011;5555;59.622;16.556;2022-07-22T14:35:46;4.77;;;2.60;;
11004;SDS011;5555;59.622;16.556;2022-07-22T14:38:12;6.60;;;3.50;;
11004;SDS011;5555;59.622;16.556;2022-07-22T14:40:37;6.63;;;3.97;;
11004;SDS011;5555;59.622;16.556;2022-07-22T14:43:03;7.53;;;3.97;;
11004;SDS011;5555;59.622;16.556;2022-07-22T14:45:29;6.83;;;4.10;;
11004;SDS011;5555;59.622;16.556;2022-07-22T14:47:54;8.27;;;3.33;;
11004;SDS011;5555;59.622;16.556;2022-07-22T14:50:20;7.77;;;3.97;;
11004;SDS011;5555;59.622;16.556;2022-07-22T14:52:47;11.80;;;5.00;;
11004;SDS011;5555;59.622;16.556;2022-07-22T14:55:12;8.67;;;4.70;;
11004;SDS011;5555;59.622;16.556;2022-07-22T14:57:38;10.43;;;5.47;;
11004;SDS011;5555;59.622;16.556;2022-07-22T15:00:04;8.47;;;4.53;;
11004;SDS011;5555;59.622;16.556;2022-07-22T15:02:30;6.70;;;4.77;;